THA639 VHHH-VTBS
Flight info
| Callsign | THA639 |
|---|---|
| Flight time | N/A |
| Altitude | 36000 |
| Route | PECAN1D PECAN V10 SIKOU/K0906S1040 A202 ASSAD/K0904F360 A202 VILAO/N0487F360 A202 RAMEI W42 PAKRI Y13 RUKSA EASTE1C |
| Aircraft | B77W/H-SDE1E2E3FGHIJ2J3J4J5M1RWXY/LB1D1 |
Departure
| Time | 2026-04-30 13:09 |
|---|---|
| Airport | Hong Kong International Airport (VHHH) |
Arrival
| Time | N/A |
|---|---|
| Airport | Suvarnabhumi Airport (VTBS) |
| Time | Latitude | Longitude | Altitude | Speed | Heading |
|---|---|---|---|---|---|
| 2026-04-30 12:36 | 22.31484 | 113.93065 | 40 ft | 0 kts | 161° |
| 2026-04-30 12:43 | 22.31485 | 113.93065 | 40 ft | 0 kts | 161° |
| 2026-04-30 12:44 | 22.31485 | 113.93064 | 40 ft | 0 kts | 161° |
| 2026-04-30 12:51 | 22.31490 | 113.93063 | 40 ft | 2 kts | 160° |
| 2026-04-30 12:51 | 22.31505 | 113.93058 | 39 ft | 2 kts | 166° |
| 2026-04-30 12:52 | 22.31516 | 113.93055 | 39 ft | 2 kts | 170° |
| 2026-04-30 12:52 | 22.31532 | 113.93053 | 39 ft | 2 kts | 179° |
| 2026-04-30 12:52 | 22.31549 | 113.93054 | 38 ft | 2 kts | 191° |
| 2026-04-30 12:52 | 22.31564 | 113.93059 | 37 ft | 2 kts | 210° |
| 2026-04-30 12:53 | 22.31577 | 113.93070 | 37 ft | 2 kts | 233° |
| 2026-04-30 12:53 | 22.31585 | 113.93084 | 38 ft | 1 kts | 248° |
| 2026-04-30 12:53 | 22.31586 | 113.93087 | 38 ft | 0 kts | 248° |
| 2026-04-30 12:54 | 22.31586 | 113.93086 | 40 ft | 0 kts | 248° |
| 2026-04-30 12:55 | 22.31581 | 113.93073 | 40 ft | 3 kts | 249° |
| 2026-04-30 12:55 | 22.31574 | 113.93052 | 40 ft | 3 kts | 250° |
| 2026-04-30 12:55 | 22.31565 | 113.93027 | 40 ft | 5 kts | 250° |
| 2026-04-30 12:55 | 22.31551 | 113.92985 | 40 ft | 8 kts | 250° |
| 2026-04-30 12:56 | 22.31530 | 113.92920 | 40 ft | 10 kts | 251° |
| 2026-04-30 12:56 | 22.31503 | 113.92836 | 40 ft | 13 kts | 250° |
| 2026-04-30 12:56 | 22.31505 | 113.92735 | 40 ft | 15 kts | 295° |
| 2026-04-30 12:56 | 22.31553 | 113.92625 | 40 ft | 17 kts | 295° |
| 2026-04-30 12:57 | 22.31609 | 113.92500 | 40 ft | 20 kts | 295° |
| 2026-04-30 12:57 | 22.31641 | 113.92354 | 40 ft | 21 kts | 257° |
| 2026-04-30 12:57 | 22.31592 | 113.92201 | 40 ft | 21 kts | 250° |
| 2026-04-30 12:57 | 22.31545 | 113.92055 | 40 ft | 20 kts | 250° |
| 2026-04-30 12:58 | 22.31503 | 113.91928 | 40 ft | 14 kts | 248° |
| 2026-04-30 12:58 | 22.31421 | 113.91898 | 40 ft | 14 kts | 161° |
| 2026-04-30 12:58 | 22.31329 | 113.91932 | 40 ft | 14 kts | 161° |
| 2026-04-30 12:58 | 22.31236 | 113.91968 | 40 ft | 14 kts | 159° |
| 2026-04-30 12:59 | 22.31143 | 113.92001 | 40 ft | 14 kts | 162° |
| 2026-04-30 12:59 | 22.31043 | 113.92038 | 40 ft | 16 kts | 161° |
| 2026-04-30 12:59 | 22.30930 | 113.92081 | 40 ft | 19 kts | 159° |
| 2026-04-30 12:59 | 22.30801 | 113.92129 | 40 ft | 21 kts | 161° |
| 2026-04-30 13:00 | 22.30671 | 113.92178 | 40 ft | 14 kts | 160° |
| 2026-04-30 13:00 | 22.30581 | 113.92181 | 40 ft | 13 kts | 227° |
| 2026-04-30 13:00 | 22.30544 | 113.92085 | 40 ft | 16 kts | 250° |
| 2026-04-30 13:00 | 22.30505 | 113.91964 | 40 ft | 21 kts | 250° |
| 2026-04-30 13:01 | 22.30455 | 113.91814 | 40 ft | 21 kts | 251° |
| 2026-04-30 13:01 | 22.30406 | 113.91662 | 40 ft | 21 kts | 251° |
| 2026-04-30 13:01 | 22.30357 | 113.91511 | 40 ft | 21 kts | 250° |
| 2026-04-30 13:01 | 22.30308 | 113.91360 | 40 ft | 21 kts | 250° |
| 2026-04-30 13:02 | 22.30260 | 113.91208 | 40 ft | 21 kts | 251° |
| 2026-04-30 13:02 | 22.30210 | 113.91057 | 40 ft | 21 kts | 250° |
| 2026-04-30 13:02 | 22.30160 | 113.90906 | 40 ft | 21 kts | 252° |
| 2026-04-30 13:02 | 22.30112 | 113.90755 | 40 ft | 21 kts | 251° |
| 2026-04-30 13:03 | 22.30064 | 113.90603 | 40 ft | 21 kts | 250° |
| 2026-04-30 13:03 | 22.30015 | 113.90452 | 40 ft | 21 kts | 250° |
| 2026-04-30 13:03 | 22.29966 | 113.90300 | 40 ft | 21 kts | 250° |
| 2026-04-30 13:03 | 22.29917 | 113.90149 | 40 ft | 21 kts | 250° |
| 2026-04-30 13:04 | 22.29868 | 113.89998 | 40 ft | 21 kts | 251° |
| 2026-04-30 13:04 | 22.29832 | 113.89885 | 40 ft | 16 kts | 250° |
| 2026-04-30 13:04 | 22.29797 | 113.89788 | 40 ft | 7 kts | 241° |
| 2026-04-30 13:04 | 22.29760 | 113.89769 | 40 ft | 1 kts | 180° |
| 2026-04-30 13:05 | 22.29759 | 113.89769 | 40 ft | 0 kts | 180° |
| 2026-04-30 13:06 | 22.29760 | 113.89769 | 40 ft | 0 kts | 180° |
| 2026-04-30 13:07 | 22.29757 | 113.89769 | 19 ft | 3 kts | 180° |
| 2026-04-30 13:07 | 22.29683 | 113.89787 | 40 ft | 9 kts | 159° |
| 2026-04-30 13:07 | 22.29642 | 113.89829 | 40 ft | 7 kts | 108° |
| 2026-04-30 13:08 | 22.29648 | 113.89880 | 40 ft | 7 kts | 71° |
| 2026-04-30 13:08 | 22.29681 | 113.89975 | 40 ft | 29 kts | 69° |
| 2026-04-30 13:08 | 22.29831 | 113.90435 | 40 ft | 102 kts | 72° |
| 2026-04-30 13:08 | 22.30134 | 113.91390 | 40 ft | 164 kts | 70° |
| 2026-04-30 13:09 | 22.30569 | 113.92666 | 313 ft | 187 kts | 71° |
| 2026-04-30 13:09 | 22.31019 | 113.93955 | 1013 ft | 184 kts | 70° |
| 2026-04-30 13:09 | 22.31445 | 113.95253 | 1695 ft | 185 kts | 71° |
| 2026-04-30 13:09 | 22.31866 | 113.96595 | 2242 ft | 196 kts | 71° |
| 2026-04-30 13:10 | 22.32331 | 113.98089 | 2480 ft | 224 kts | 71° |
| 2026-04-30 13:10 | 22.32849 | 113.99756 | 2911 ft | 241 kts | 71° |
| 2026-04-30 13:10 | 22.33394 | 114.01480 | 3660 ft | 245 kts | 70° |
| 2026-04-30 13:10 | 22.33845 | 114.03294 | 4219 ft | 257 kts | 84° |
| 2026-04-30 13:11 | 22.33672 | 114.05251 | 4837 ft | 270 kts | 107° |
| 2026-04-30 13:11 | 22.32771 | 114.07054 | 5545 ft | 277 kts | 131° |
| 2026-04-30 13:11 | 22.31253 | 114.08336 | 6263 ft | 281 kts | 158° |
| 2026-04-30 13:11 | 22.29354 | 114.08797 | 6967 ft | 280 kts | 181° |
| 2026-04-30 13:12 | 22.27400 | 114.08760 | 7648 ft | 283 kts | 183° |
| 2026-04-30 13:12 | 22.25418 | 114.08736 | 8422 ft | 286 kts | 183° |
| 2026-04-30 13:12 | 22.23421 | 114.08705 | 9220 ft | 288 kts | 184° |
| 2026-04-30 13:13 | 22.19355 | 114.08643 | 10555 ft | 302 kts | 184° |
| 2026-04-30 13:13 | 22.17198 | 114.08917 | 10667 ft | 330 kts | 163° |
| 2026-04-30 13:13 | 22.13804 | 114.12685 | 11044 ft | 389 kts | 116° |
| 2026-04-30 13:14 | 22.12701 | 114.15364 | 11485 ft | 401 kts | 115° |
| 2026-04-30 13:14 | 22.11523 | 114.18133 | 12104 ft | 410 kts | 117° |
| 2026-04-30 13:14 | 22.08935 | 114.23684 | 13677 ft | 418 kts | 119° |
| 2026-04-30 13:15 | 22.07424 | 114.26352 | 14226 ft | 419 kts | 133° |
| 2026-04-30 13:15 | 22.02786 | 114.30104 | 15260 ft | 424 kts | 148° |
| 2026-04-30 13:15 | 22.00352 | 114.31879 | 15871 ft | 420 kts | 154° |
| 2026-04-30 13:16 | 21.97615 | 114.32913 | 16331 ft | 418 kts | 176° |
| 2026-04-30 13:16 | 21.94737 | 114.32817 | 17030 ft | 412 kts | 195° |
| 2026-04-30 13:16 | 21.92022 | 114.31922 | 17801 ft | 407 kts | 207° |
| 2026-04-30 13:17 | 21.87391 | 114.28469 | 18885 ft | 410 kts | 222° |
| 2026-04-30 13:17 | 21.85178 | 114.26512 | 19403 ft | 414 kts | 222° |
| 2026-04-30 13:17 | 21.80689 | 114.22577 | 20603 ft | 419 kts | 221° |
| 2026-04-30 13:18 | 21.78402 | 114.20609 | 21178 ft | 422 kts | 221° |
| 2026-04-30 13:18 | 21.73754 | 114.16651 | 22260 ft | 430 kts | 220° |
| 2026-04-30 13:18 | 21.71399 | 114.14652 | 22790 ft | 433 kts | 220° |
| 2026-04-30 13:19 | 21.69023 | 114.12636 | 23318 ft | 437 kts | 220° |
| 2026-04-30 13:19 | 21.66631 | 114.10606 | 23789 ft | 439 kts | 220° |
| 2026-04-30 13:19 | 21.64077 | 114.08779 | 24121 ft | 446 kts | 207° |
| 2026-04-30 13:19 | 21.61099 | 114.07787 | 24445 ft | 451 kts | 194° |
| 2026-04-30 13:20 | 21.58001 | 114.07109 | 24748 ft | 457 kts | 195° |
| 2026-04-30 13:20 | 21.54897 | 114.06353 | 25199 ft | 458 kts | 196° |
| 2026-04-30 13:20 | 21.51797 | 114.05554 | 25678 ft | 459 kts | 197° |
| 2026-04-30 13:20 | 21.48689 | 114.04742 | 26089 ft | 461 kts | 197° |
| 2026-04-30 13:21 | 21.45559 | 114.03925 | 26465 ft | 465 kts | 198° |
| 2026-04-30 13:21 | 21.42523 | 114.02766 | 26790 ft | 462 kts | 212° |
| 2026-04-30 13:21 | 21.39848 | 114.00894 | 27089 ft | 460 kts | 218° |
| 2026-04-30 13:22 | 21.34547 | 113.96943 | 27807 ft | 467 kts | 217° |
| 2026-04-30 13:22 | 21.31846 | 113.94989 | 28200 ft | 469 kts | 216° |
| 2026-04-30 13:22 | 21.26369 | 113.91107 | 28814 ft | 476 kts | 216° |
| 2026-04-30 13:23 | 21.23596 | 113.89156 | 29114 ft | 479 kts | 216° |
| 2026-04-30 13:23 | 21.18048 | 113.85253 | 29844 ft | 480 kts | 216° |
| 2026-04-30 13:24 | 21.12520 | 113.81307 | 30712 ft | 473 kts | 221° |
| 2026-04-30 13:24 | 21.08214 | 113.76088 | 31559 ft | 461 kts | 240° |
| 2026-04-30 13:25 | 21.05691 | 113.69998 | 32709 ft | 445 kts | 252° |
| 2026-04-30 13:25 | 21.03731 | 113.63735 | 33436 ft | 444 kts | 252° |
| 2026-04-30 13:26 | 21.00720 | 113.54294 | 34300 ft | 446 kts | 251° |
| 2026-04-30 13:26 | 20.98695 | 113.48047 | 34938 ft | 444 kts | 251° |
| 2026-04-30 13:27 | 20.96668 | 113.41820 | 35530 ft | 441 kts | 251° |
| 2026-04-30 13:28 | 20.93649 | 113.32559 | 36040 ft | 442 kts | 251° |
| 2026-04-30 13:28 | 20.90626 | 113.23304 | 36033 ft | 437 kts | 251° |
| 2026-04-30 13:29 | 20.86629 | 113.11093 | 36041 ft | 434 kts | 251° |
| 2026-04-30 13:31 | 20.81613 | 112.95816 | 36029 ft | 438 kts | 251° |
| 2026-04-30 13:32 | 20.76508 | 112.80322 | 36048 ft | 445 kts | 251° |
| 2026-04-30 13:33 | 20.72395 | 112.67875 | 36035 ft | 445 kts | 251° |
| 2026-04-30 13:34 | 20.69308 | 112.58558 | 36035 ft | 442 kts | 251° |
| 2026-04-30 13:35 | 20.65212 | 112.46221 | 36036 ft | 440 kts | 251° |
| 2026-04-30 13:36 | 20.61123 | 112.33937 | 36040 ft | 439 kts | 251° |
| 2026-04-30 13:36 | 20.58052 | 112.24730 | 36042 ft | 439 kts | 251° |
| 2026-04-30 13:37 | 20.56107 | 112.15292 | 36051 ft | 439 kts | 273° |
| 2026-04-30 13:38 | 20.57590 | 112.08953 | 36038 ft | 446 kts | 292° |
| 2026-04-30 13:38 | 20.58964 | 112.05982 | 36046 ft | 448 kts | 293° |
| 2026-04-30 13:39 | 20.64507 | 111.94044 | 36043 ft | 452 kts | 292° |
| 2026-04-30 13:40 | 20.68169 | 111.85938 | 36040 ft | 453 kts | 292° |
| 2026-04-30 13:40 | 20.70897 | 111.79873 | 36045 ft | 453 kts | 292° |
| 2026-04-30 13:41 | 20.73620 | 111.73817 | 36041 ft | 452 kts | 292° |
| 2026-04-30 13:41 | 20.76337 | 111.67769 | 36039 ft | 451 kts | 292° |
| 2026-04-30 13:42 | 20.79044 | 111.61737 | 36041 ft | 450 kts | 292° |
| 2026-04-30 13:42 | 20.82805 | 111.52669 | 36039 ft | 441 kts | 279° |
| 2026-04-30 13:43 | 20.82929 | 111.46182 | 36048 ft | 438 kts | 260° |
| 2026-04-30 13:43 | 20.81066 | 111.39994 | 36045 ft | 439 kts | 250° |
| 2026-04-30 13:44 | 20.78925 | 111.33851 | 36049 ft | 443 kts | 251° |
| 2026-04-30 13:44 | 20.76810 | 111.27647 | 36050 ft | 446 kts | 251° |
| 2026-04-30 13:45 | 20.73658 | 111.18270 | 36044 ft | 448 kts | 251° |
| 2026-04-30 13:46 | 20.71555 | 111.12011 | 36040 ft | 447 kts | 251° |
| 2026-04-30 13:46 | 20.69451 | 111.05766 | 36040 ft | 446 kts | 251° |
| 2026-04-30 13:47 | 20.67350 | 110.99537 | 36040 ft | 446 kts | 251° |
| 2026-04-30 13:47 | 20.65251 | 110.93318 | 36040 ft | 445 kts | 251° |
| 2026-04-30 13:48 | 20.63156 | 110.87109 | 36034 ft | 444 kts | 251° |
| 2026-04-30 13:48 | 20.61076 | 110.80907 | 36037 ft | 444 kts | 251° |
| 2026-04-30 13:49 | 20.58992 | 110.74699 | 36037 ft | 444 kts | 251° |
| 2026-04-30 13:49 | 20.56902 | 110.68484 | 36044 ft | 446 kts | 251° |
| 2026-04-30 13:50 | 20.54817 | 110.62294 | 36043 ft | 447 kts | 251° |
| 2026-04-30 13:50 | 20.51588 | 110.52959 | 36039 ft | 448 kts | 246° |
| 2026-04-30 13:51 | 20.48550 | 110.47146 | 36053 ft | 450 kts | 238° |
| 2026-04-30 13:51 | 20.44716 | 110.41800 | 36049 ft | 452 kts | 232° |
| 2026-04-30 13:52 | 20.40742 | 110.36665 | 36045 ft | 452 kts | 233° |
| 2026-04-30 13:52 | 20.36769 | 110.31485 | 36045 ft | 452 kts | 233° |
| 2026-04-30 13:53 | 20.32802 | 110.26281 | 36045 ft | 452 kts | 233° |
| 2026-04-30 13:53 | 20.28842 | 110.21081 | 36044 ft | 452 kts | 233° |
| 2026-04-30 13:54 | 20.24924 | 110.15856 | 36030 ft | 451 kts | 233° |
| 2026-04-30 13:54 | 20.21017 | 110.10629 | 36045 ft | 451 kts | 233° |
| 2026-04-30 13:55 | 20.17104 | 110.05405 | 36044 ft | 451 kts | 233° |
| 2026-04-30 13:55 | 20.13187 | 110.00188 | 36042 ft | 451 kts | 233° |
| 2026-04-30 13:56 | 20.09263 | 109.94968 | 36045 ft | 451 kts | 233° |
| 2026-04-30 13:56 | 20.05349 | 109.89766 | 36046 ft | 451 kts | 233° |
| 2026-04-30 13:57 | 20.01422 | 109.84551 | 36042 ft | 451 kts | 233° |
| 2026-04-30 13:57 | 19.97498 | 109.79345 | 36043 ft | 451 kts | 233° |
| 2026-04-30 13:58 | 19.91614 | 109.71546 | 36041 ft | 451 kts | 233° |
| 2026-04-30 13:59 | 19.87688 | 109.66348 | 36035 ft | 451 kts | 233° |
| 2026-04-30 13:59 | 19.83765 | 109.61159 | 36034 ft | 450 kts | 233° |
| 2026-04-30 14:00 | 19.79843 | 109.55975 | 36055 ft | 450 kts | 233° |
| 2026-04-30 14:00 | 19.73956 | 109.48204 | 36034 ft | 450 kts | 233° |
| 2026-04-30 14:01 | 19.70026 | 109.43021 | 36042 ft | 450 kts | 233° |
| 2026-04-30 14:01 | 19.66098 | 109.37845 | 36037 ft | 451 kts | 233° |
| 2026-04-30 14:02 | 19.62165 | 109.32667 | 36036 ft | 451 kts | 233° |
| 2026-04-30 14:02 | 19.58226 | 109.27484 | 36037 ft | 451 kts | 233° |
| 2026-04-30 14:03 | 19.54287 | 109.22306 | 36011 ft | 451 kts | 233° |
| 2026-04-30 14:03 | 19.50361 | 109.17164 | 36030 ft | 452 kts | 232° |
| 2026-04-30 14:04 | 19.46377 | 109.12018 | 36030 ft | 452 kts | 232° |
| 2026-04-30 14:04 | 19.42384 | 109.06871 | 36021 ft | 452 kts | 232° |
| 2026-04-30 14:05 | 19.38390 | 109.01719 | 36025 ft | 453 kts | 232° |
| 2026-04-30 14:05 | 19.34395 | 108.96564 | 36019 ft | 453 kts | 232° |
| 2026-04-30 14:06 | 19.28390 | 108.88823 | 36022 ft | 454 kts | 232° |
| 2026-04-30 14:07 | 19.22375 | 108.81073 | 36023 ft | 454 kts | 232° |
| 2026-04-30 14:08 | 19.16369 | 108.73319 | 36020 ft | 455 kts | 232° |
| 2026-04-30 14:08 | 19.10349 | 108.65557 | 36014 ft | 455 kts | 232° |
| 2026-04-30 14:09 | 19.06357 | 108.60415 | 36017 ft | 456 kts | 232° |
| 2026-04-30 14:10 | 19.00316 | 108.52643 | 36020 ft | 456 kts | 232° |
| 2026-04-30 14:10 | 18.96256 | 108.47424 | 36013 ft | 457 kts | 232° |
| 2026-04-30 14:11 | 18.92247 | 108.42277 | 36024 ft | 457 kts | 232° |
| 2026-04-30 14:11 | 18.88203 | 108.37089 | 36016 ft | 458 kts | 232° |
| 2026-04-30 14:12 | 18.84155 | 108.31898 | 36012 ft | 458 kts | 232° |
| 2026-04-30 14:12 | 18.80099 | 108.26703 | 36019 ft | 459 kts | 232° |
| 2026-04-30 14:13 | 18.76039 | 108.21506 | 36020 ft | 459 kts | 232° |
| 2026-04-30 14:13 | 18.71971 | 108.16304 | 36027 ft | 460 kts | 232° |
| 2026-04-30 14:14 | 18.67896 | 108.11097 | 36030 ft | 460 kts | 232° |
| 2026-04-30 14:14 | 18.63818 | 108.05891 | 36029 ft | 460 kts | 232° |
| 2026-04-30 14:15 | 18.59740 | 108.00689 | 36031 ft | 460 kts | 232° |
| 2026-04-30 14:15 | 18.55663 | 107.95492 | 36024 ft | 460 kts | 232° |
| 2026-04-30 14:16 | 18.51585 | 107.90298 | 36029 ft | 460 kts | 232° |
| 2026-04-30 14:16 | 18.47503 | 107.85104 | 36037 ft | 460 kts | 232° |
| 2026-04-30 14:17 | 18.43421 | 107.79913 | 36039 ft | 460 kts | 232° |
| 2026-04-30 14:17 | 18.39336 | 107.74722 | 36037 ft | 460 kts | 232° |
| 2026-04-30 14:18 | 18.35250 | 107.69533 | 36046 ft | 460 kts | 233° |
| 2026-04-30 14:18 | 18.29921 | 107.61202 | 36044 ft | 457 kts | 239° |
| 2026-04-30 14:19 | 18.24835 | 107.52715 | 36045 ft | 457 kts | 239° |
| 2026-04-30 14:20 | 18.21425 | 107.47077 | 36042 ft | 457 kts | 239° |
| 2026-04-30 14:20 | 18.16296 | 107.38617 | 36054 ft | 457 kts | 239° |
| 2026-04-30 14:21 | 18.12899 | 107.33017 | 36042 ft | 457 kts | 239° |
| 2026-04-30 14:22 | 18.07773 | 107.24574 | 36047 ft | 457 kts | 239° |
| 2026-04-30 14:22 | 18.02633 | 107.16151 | 36052 ft | 456 kts | 239° |
| 2026-04-30 14:23 | 17.95778 | 107.04949 | 36049 ft | 456 kts | 239° |
| 2026-04-30 14:24 | 17.90634 | 106.96547 | 36047 ft | 456 kts | 239° |
| 2026-04-30 14:25 | 17.83790 | 106.85319 | 36047 ft | 457 kts | 239° |
| 2026-04-30 14:26 | 17.78671 | 106.76879 | 36045 ft | 457 kts | 239° |
| 2026-04-30 14:27 | 17.74117 | 106.69387 | 36048 ft | 458 kts | 239° |
| 2026-04-30 14:27 | 17.70690 | 106.63756 | 36037 ft | 458 kts | 239° |
| 2026-04-30 14:28 | 17.65546 | 106.55322 | 36049 ft | 457 kts | 239° |
| 2026-04-30 14:28 | 17.62113 | 106.49714 | 36049 ft | 457 kts | 239° |
| 2026-04-30 14:29 | 17.55252 | 106.38513 | 36051 ft | 456 kts | 239° |
| 2026-04-30 14:31 | 17.46696 | 106.24565 | 36063 ft | 457 kts | 239° |
| 2026-04-30 14:31 | 17.41535 | 106.16165 | 36051 ft | 457 kts | 239° |
| 2026-04-30 14:32 | 17.36383 | 106.07786 | 36053 ft | 455 kts | 240° |
| 2026-04-30 14:33 | 17.32983 | 106.02196 | 36035 ft | 455 kts | 240° |
| 2026-04-30 14:33 | 17.27914 | 105.93816 | 36035 ft | 454 kts | 240° |
| 2026-04-30 14:34 | 17.24531 | 105.88233 | 36028 ft | 454 kts | 240° |
| 2026-04-30 14:34 | 17.21140 | 105.82651 | 36012 ft | 455 kts | 240° |
| 2026-04-30 14:35 | 17.16048 | 105.74277 | 36006 ft | 455 kts | 240° |
| 2026-04-30 14:36 | 17.12648 | 105.68690 | 36002 ft | 456 kts | 240° |
| 2026-04-30 14:36 | 17.09247 | 105.63107 | 35990 ft | 455 kts | 240° |
| 2026-04-30 14:37 | 17.05849 | 105.57532 | 35986 ft | 454 kts | 240° |
| 2026-04-30 14:37 | 17.02456 | 105.51971 | 35981 ft | 454 kts | 240° |
| 2026-04-30 14:38 | 16.99066 | 105.46418 | 35978 ft | 453 kts | 240° |
| 2026-04-30 14:38 | 16.95678 | 105.40873 | 35972 ft | 453 kts | 240° |
| 2026-04-30 14:39 | 16.92290 | 105.35332 | 35972 ft | 453 kts | 240° |
| 2026-04-30 14:39 | 16.88899 | 105.29789 | 35974 ft | 453 kts | 240° |
| 2026-04-30 14:40 | 16.83832 | 105.21522 | 35967 ft | 453 kts | 239° |
| 2026-04-30 14:40 | 16.80433 | 105.15999 | 35969 ft | 452 kts | 240° |
| 2026-04-30 14:41 | 16.77043 | 105.10492 | 35964 ft | 451 kts | 240° |
| 2026-04-30 14:41 | 16.73656 | 105.04991 | 35962 ft | 450 kts | 240° |
| 2026-04-30 14:42 | 16.70276 | 104.99506 | 35960 ft | 449 kts | 240° |
| 2026-04-30 14:42 | 16.66902 | 104.94034 | 35963 ft | 449 kts | 240° |
| 2026-04-30 14:43 | 16.63526 | 104.88562 | 35958 ft | 449 kts | 240° |
| 2026-04-30 14:43 | 16.60146 | 104.83086 | 35954 ft | 449 kts | 239° |
| 2026-04-30 14:44 | 16.56744 | 104.77628 | 35956 ft | 450 kts | 237° |
| 2026-04-30 14:44 | 16.52745 | 104.72587 | 35963 ft | 453 kts | 231° |
| 2026-04-30 14:45 | 16.48517 | 104.67727 | 35956 ft | 452 kts | 231° |
| 2026-04-30 14:45 | 16.44311 | 104.62853 | 35951 ft | 452 kts | 231° |
| 2026-04-30 14:46 | 16.40116 | 104.57970 | 35951 ft | 452 kts | 231° |
| 2026-04-30 14:46 | 16.35927 | 104.53094 | 35945 ft | 452 kts | 231° |
| 2026-04-30 14:47 | 16.31736 | 104.48221 | 35947 ft | 452 kts | 231° |
| 2026-04-30 14:47 | 16.27545 | 104.43351 | 35944 ft | 451 kts | 231° |
| 2026-04-30 14:48 | 16.23333 | 104.38506 | 35939 ft | 451 kts | 231° |
| 2026-04-30 14:48 | 16.19099 | 104.33679 | 35925 ft | 452 kts | 230° |
| 2026-04-30 14:49 | 16.14857 | 104.28840 | 35942 ft | 454 kts | 230° |
| 2026-04-30 14:49 | 16.10596 | 104.23974 | 35939 ft | 456 kts | 230° |
| 2026-04-30 14:50 | 16.04177 | 104.16637 | 35931 ft | 458 kts | 231° |
| 2026-04-30 14:51 | 15.97826 | 104.09227 | 35925 ft | 457 kts | 231° |
| 2026-04-30 14:52 | 15.91528 | 104.01872 | 35926 ft | 456 kts | 231° |
| 2026-04-30 14:52 | 15.85205 | 103.94510 | 35926 ft | 456 kts | 230° |
| 2026-04-30 14:53 | 15.78855 | 103.87127 | 35927 ft | 458 kts | 230° |
| 2026-04-30 14:54 | 15.70320 | 103.77216 | 35919 ft | 462 kts | 230° |
| 2026-04-30 14:55 | 15.63880 | 103.69746 | 35918 ft | 463 kts | 230° |
| 2026-04-30 14:56 | 15.55286 | 103.59790 | 35900 ft | 463 kts | 229° |
| 2026-04-30 14:57 | 15.48842 | 103.52332 | 35914 ft | 463 kts | 229° |
| 2026-04-30 14:58 | 15.40243 | 103.42393 | 35917 ft | 464 kts | 229° |
| 2026-04-30 14:58 | 15.33772 | 103.34922 | 35915 ft | 465 kts | 229° |
| 2026-04-30 15:00 | 15.22980 | 103.22479 | 35916 ft | 466 kts | 229° |
| 2026-04-30 15:01 | 15.14306 | 103.12493 | 35925 ft | 467 kts | 229° |
| 2026-04-30 15:01 | 15.07787 | 103.04994 | 35936 ft | 468 kts | 229° |
| 2026-04-30 15:02 | 15.02992 | 103.00439 | 35943 ft | 470 kts | 219° |
| 2026-04-30 15:03 | 14.89179 | 102.91397 | 35939 ft | 467 kts | 225° |
| 2026-04-30 15:04 | 14.85395 | 102.86019 | 35954 ft | 464 kts | 245° |
| 2026-04-30 15:04 | 14.82427 | 102.76531 | 35960 ft | 464 kts | 253° |
| 2026-04-30 15:05 | 14.79570 | 102.66963 | 35735 ft | 463 kts | 252° |
| 2026-04-30 15:06 | 14.77613 | 102.60575 | 34948 ft | 469 kts | 252° |
| 2026-04-30 15:06 | 14.75626 | 102.54128 | 34267 ft | 471 kts | 252° |
| 2026-04-30 15:07 | 14.73647 | 102.47711 | 33903 ft | 466 kts | 252° |
| 2026-04-30 15:07 | 14.71688 | 102.41361 | 33464 ft | 462 kts | 252° |
| 2026-04-30 15:08 | 14.69743 | 102.35057 | 32452 ft | 457 kts | 252° |
| 2026-04-30 15:08 | 14.66886 | 102.25815 | 30942 ft | 448 kts | 252° |
| 2026-04-30 15:09 | 14.65000 | 102.19721 | 29886 ft | 444 kts | 252° |
| 2026-04-30 15:09 | 14.63132 | 102.13688 | 28772 ft | 438 kts | 252° |
| 2026-04-30 15:10 | 14.61288 | 102.07743 | 27726 ft | 432 kts | 252° |
| 2026-04-30 15:11 | 14.57669 | 101.96084 | 25750 ft | 422 kts | 252° |
| 2026-04-30 15:11 | 14.55790 | 101.90369 | 24753 ft | 419 kts | 248° |
| 2026-04-30 15:12 | 14.52446 | 101.82066 | 23235 ft | 417 kts | 247° |
| 2026-04-30 15:13 | 14.50230 | 101.76574 | 22190 ft | 412 kts | 247° |
| 2026-04-30 15:14 | 14.45896 | 101.65768 | 20272 ft | 403 kts | 247° |
| 2026-04-30 15:14 | 14.42698 | 101.57796 | 18833 ft | 399 kts | 247° |
| 2026-04-30 15:16 | 14.37588 | 101.45076 | 17296 ft | 366 kts | 247° |
| 2026-04-30 15:17 | 14.34077 | 101.36349 | 15304 ft | 359 kts | 247° |
| 2026-04-30 15:18 | 14.28684 | 101.25139 | 13308 ft | 338 kts | 234° |
| 2026-04-30 15:19 | 14.24748 | 101.19281 | 11519 ft | 315 kts | 235° |